Date,TemperatureHighF,TemperatureAvgF,TemperatureLowF,DewpointHighF,DewpointAvgF,DewpointLowF,HumidityHigh,HumidityAvg,HumidityLow,PressureMaxIn,PressureMinIn,WindSpeedMaxMPH,WindSpeedAvgMPH,GustSpeedMaxMPH,PrecipitationSumIn
2013-1-1,23,10,2,-5,-14,-20,40,33,25,30.24,30.12,6,4,10,0.00
2013-1-2,29,20,8,5,-5,-19,51,34,23,30.18,30.06,9,5,15,0.00
2013-1-3,25,21,13,8,5,-2,54,49,43,30.21,30.06,10,7,17,0.00
2013-1-4,30,19,10,6,0,-5,53,43,28,30.21,30.06,10,7,18,0.00
2013-1-5,36,29,16,34,16,0,98,61,33,30.21,29.88,14,6,23,0.00
2013-1-6,35,27,16,29,11,6,79,51,31,30.30,29.88,8,6,19,0.00
2013-1-7,38,27,14,14,6,-1,64,42,24,30.30,30.06,18,9,26,0.00
2013-1-8,43,36,26,21,15,10,73,43,28,30.15,29.94,13,7,22,0.00
2013-1-9,40,35,27,19,11,5,51,36,23,30.44,29.94,14,8,26,0.00
2013-1-10,40,32,21,36,17,4,98,56,39,30.50,29.94,8,4,14,0.00
2013-1-11,46,41,37,46,40,36,98,98,98,29.94,29.71,9,4,15,0.00
2013-1-12,50,34,26,38,14,6,66,43,31,30.03,29.68,16,8,26,0.00
2013-1-13,26,19,13,13,0,-7,56,42,34,30.18,29.91,11,7,21,0.00
2013-1-14,26,18,10,-3,-7,-10,42,33,24,30.41,30.18,10,5,18,0.00
2013-1-15,31,21,13,3,-2,-6,47,37,23,30.41,30.09,7,4,13,0.00
2013-1-16,32,26,19,20,6,-5,63,42,28,30.09,29.76,13,8,26,0.00
2013-1-17,27,20,14,4,-7,-13,36,30,22,30.39,30.06,9,5,17,0.00
2013-1-18,41,27,12,18,4,-10,47,38,30,30.41,29.85,20,10,31,0.00
2013-1-19,44,37,14,21,15,-14,54,41,21,29.91,29.68,19,9,34,0.00
2013-1-20,16,10,6,-10,-17,-22,32,27,24,30.30,29.91,18,9,29,0.00
2013-1-21,9,3,-4,-21,-26,-32,24,24,24,30.27,30.12,14,9,24,0.00
2013-1-22,6,0,-7,-23,-28,-34,24,24,24,30.33,30.27,10,7,17,0.00
2013-1-23,18,11,2,1,-12,-26,53,35,24,30.39,30.09,10,5,17,0.00
2013-1-24,21,12,2,-3,-11,-14,46,36,25,30.62,30.36,7,3,13,0.00
2013-1-25,23,19,14,8,0,-12,55,44,25,30.36,29.97,9,6,15,0.00
2013-1-26,33,19,6,0,-5,-10,45,35,23,30.39,30.18,7,4,13,0.00
2013-1-27,33,28,23,32,14,-2,98,60,32,29.06,28.70,10,6,16,0.00
2013-1-28,44,36,33,36,28,15,98,77,38,28.76,28.58,6,2,12,0.00
2013-1-29,58,45,36,56,44,36,98,97,94,28.64,28.29,9,5,17,0.00
2013-1-30,38,29,15,38,22,-1,98,76,48,28.38,28.11,9,2,18,0.00
2013-1-31,16,11,2,0,-10,-21,49,38,29,28.88,28.38,12,8,24,0.00
2013-2-1,8,2,-3,-16,-21,-25,32,32,32,29.06,28.88,12,8,20,0.00
2013-2-2,24,11,3,-8,-17,-25,32,27,22,28.91,28.79,7,3,13,0.00
2013-2-3,20,12,4,-2,-14,-24,47,29,24,28.82,28.70,11,5,20,0.00
2013-2-4,25,15,7,1,-8,-22,51,36,22,28.82,28.70,7,3,13,0.00
2013-2-5,26,18,4,11,-3,-25,60,40,24,28.88,28.55,10,5,19,0.00
2013-2-6,37,24,6,17,2,-10,52,39,22,29.03,28.88,6,2,10,0.00
2013-2-7,36,33,23,29,23,14,86,69,52,28.91,28.70,8,2,13,0.00
2013-2-8,34,22,8,14,4,-8,66,47,22,29.17,28.82,0,0,0,0.00
2013-2-9,29,21,6,13,5,-10,63,50,41,29.17,28.88,0,0,0,0.00
2013-2-10,43,34,19,43,28,8,98,82,55,28.88,28.23,13,6,24,0.00
2013-2-11,40,32,27,31,14,5,69,47,37,28.76,28.23,15,13,29,0.00
2013-2-12,34,25,20,11,5,-1,56,42,22,28.85,28.64,10,6,17,0.00
2013-2-13,44,31,22,18,13,7,75,49,23,28.67,28.50,7,4,13,0.00
2013-2-14,35,32,28,33,19,9,92,61,42,28.79,28.41,10,6,17,0.00
2013-2-15,34,21,12,13,-5,-12,54,32,22,28.97,28.79,8,5,17,0.00
2013-2-16,31,13,6,-3,-14,-21,32,27,22,28.97,28.91,8,4,15,0.00
2013-2-17,35,18,5,0,-12,-24,32,24,21,29.00,28.76,10,3,15,0.00
2013-2-18,46,36,26,37,15,-2,98,47,29,28.79,28.23,12,8,20,0.00
2013-2-19,32,14,7,31,-6,-18,96,42,29,28.91,28.29,18,11,28,0.00
2013-2-20,26,14,5,-4,-12,-20,41,30,24,29.14,28.91,9,5,17,0.00
2013-2-21,28,21,13,16,4,-6,66,48,40,29.17,28.91,10,6,24,0.00
2013-2-22,35,28,24,23,18,10,88,65,44,28.91,28.58,9,5,15,0.00
2013-2-23,30,25,20,16,8,3,64,47,32,28.70,28.61,7,5,13,0.00
2013-2-24,49,29,20,8,6,0,54,40,19,28.94,28.70,7,3,13,0.00
2013-2-25,48,35,18,18,9,4,59,37,19,28.97,28.85,4,2,8,0.00
2013-2-26,36,33,30,31,19,11,95,60,37,28.88,28.41,19,10,32,0.00
2013-2-27,37,33,30,31,27,21,96,79,53,28.50,28.38,10,1,17,0.00
2013-2-28,37,31,25,21,11,7,60,44,33,28.91,28.70,0,0,0,0.00
2013-3-1,29,25,21,8,5,0,48,42,35,29.03,28.88,12,7,23,0.00
2013-3-2,33,21,13,2,-3,-7,43,36,23,29.00,28.94,7,4,12,0.00
2013-3-3,34,16,9,0,-8,-14,40,33,22,28.94,28.88,5,1,10,0.00
2013-3-4,37,23,7,14,1,-15,50,38,24,28.94,28.85,6,3,12,0.00
2013-3-5,35,30,27,17,12,5,64,46,31,28.85,28.67,13,7,28,0.00
2013-3-6,37,31,26,14,12,8,54,44,32,29.09,28.85,10,4,16,0.00
2013-3-7,41,27,20,8,5,2,45,39,21,29.17,29.06,4,2,8,0.00
2013-3-8,30,29,29,14,13,12,51,50,49,29.14,29.09,4,2,7,0.00
2013-3-9,40,34,28,28,18,11,73,51,38,29.09,28.64,9,5,19,0.04
2013-3-10,45,38,36,45,36,27,98,92,70,28.64,28.44,12,5,22,0.00
2013-3-11,37,35,30,37,33,19,98,92,63,28.52,28.32,7,2,13,0.00
2013-3-12,35,29,24,20,10,1,75,45,25,28.76,28.52,9,6,20,0.00
2013-3-13,37,28,21,5,-3,-7,43,27,22,29.06,28.76,9,6,18,0.00
2013-3-14,39,29,20,23,3,-6,74,34,21,29.06,28.82,7,4,12,0.00
2013-3-15,40,33,29,26,22,16,83,64,39,28.85,28.64,8,4,14,0.00
2013-3-16,41,30,24,19,9,-2,70,46,21,28.91,28.61,4,0,10,0.00
2013-3-17,32,22,18,0,-3,-8,35,33,25,29.06,28.91,9,6,15,0.00
2013-3-18,36,30,18,28,16,-2,85,56,40,28.58,28.38,7,3,12,0.00
2013-3-19,30,20,13,-2,-6,-10,45,32,23,28.79,28.47,15,4,26,0.00
2013-3-20,23,15,9,-8,-13,-17,29,27,22,28.82,28.79,13,10,22,0.00
2013-3-21,33,22,9,-1,-7,-18,34,27,23,28.82,28.79,9,5,17,0.00
2013-3-22,45,27,14,6,-2,-7,41,29,20,28.88,28.79,5,2,10,0.00
2013-3-23,47,27,18,8,4,1,53,39,19,28.94,28.85,4,1,9,0.00
2013-3-24,37,33,30,19,13,8,52,44,38,28.76,28.55,14,10,27,0.00
2013-3-25,39,32,28,15,11,5,53,41,24,28.88,28.58,13,8,25,0.00
2013-3-26,42,35,30,12,10,8,45,36,26,29.00,28.88,8,4,13,0.00
2013-3-27,46,37,31,12,7,1,42,29,20,29.09,29.00,7,4,14,0.00
2013-3-28,54,38,28,12,6,0,41,27,18,29.12,29.06,6,3,10,0.00
2013-3-29,58,43,31,13,7,0,37,23,17,29.12,29.03,5,3,10,0.00
2013-3-30,55,42,31,37,13,3,77,31,19,29.03,28.61,14,7,21,0.00
2013-3-31,49,40,32,38,25,2,98,60,21,28.70,28.50,14,7,25,0.00
2013-4-1,38,32,28,4,-1,-4,30,23,21,28.97,28.67,11,7,22,0.00
2013-4-2,43,32,24,6,0,-4,34,26,20,29.09,28.94,10,6,18,0.00
2013-4-3,30,27,23,5,0,-4,40,32,23,29.23,29.09,5,2,8,0.00
2013-4-5,35,35,34,8,5,2,32,28,25,29.00,28.97,4,3,9,0.00
2013-4-6,58,45,34,43,20,4,68,38,20,28.97,28.35,13,7,25,0.00
2013-4-7,61,43,35,43,21,14,69,44,17,28.79,28.35,12,8,24,0.04
2013-4-8,52,41,35,44,32,18,95,70,50,28.79,28.47,10,4,15,0.00
2013-4-9,42,38,36,40,36,33,98,93,71,28.85,28.70,16,9,28,0.00
2013-4-10,36,34,34,35,34,32,98,97,95,28.88,28.73,14,12,26,0.00
2013-4-11,36,36,36,35,35,35,98,98,98,28.44,28.41,5,5,11,0.00
2013-4-12,40,37,34,40,33,23,98,88,52,28.58,28.35,7,4,13,0.00
2013-4-13,38,35,32,25,15,8,70,44,29,28.79,28.58,11,6,22,0.00
2013-4-14,47,37,31,34,22,12,76,55,43,28.82,28.47,9,4,17,0.00
2013-4-15,62,51,42,52,36,11,97,61,17,28.76,28.47,17,7,26,0.00
2013-4-16,63,44,34,34,19,13,82,40,16,29.09,28.76,8,4,15,0.04
2013-4-17,42,40,37,41,28,16,96,64,36,29.14,28.70,10,6,20,0.00
2013-4-18,51,45,40,50,43,20,98,92,45,28.73,28.20,17,5,30,0.00
2013-4-19,39,36,30,25,12,3,59,38,27,28.67,28.17,16,12,30,0.00
2013-4-20,52,35,26,11,5,-1,42,29,18,29.20,28.67,9,6,18,0.00
2013-4-21,47,40,30,12,7,2,44,26,19,29.29,29.06,11,7,19,0.00
2013-4-22,68,52,38,21,14,10,39,23,15,29.09,28.85,10,6,17,0.00
2013-4-23,53,44,37,40,28,11,83,55,21,28.85,28.70,10,5,18,0.00
2013-4-24,54,43,34,18,11,5,45,29,18,28.85,28.76,9,5,18,0.00
2013-4-25,50,42,36,30,16,5,75,37,19,29.09,28.76,12,7,19,0.00
2013-4-26,60,45,37,25,15,10,39,30,17,29.12,29.03,15,6,23,0.00
2013-4-27,70,58,47,34,24,15,56,30,15,29.06,28.85,9,6,17,0.00
2013-4-28,78,58,47,36,27,20,55,33,15,28.85,28.64,6,2,11,0.00
2013-4-29,52,51,51,42,39,37,71,64,56,28.67,28.64,5,5,6,0.00
2013-5-1,87,71,51,39,30,20,39,23,13,29.03,28.76,12,7,20,0.00
2013-5-3,50,46,39,41,38,32,93,73,52,28.94,28.82,12,8,21,0.00
2013-5-4,73,58,45,37,28,19,66,38,16,28.88,28.79,8,4,14,0.00
2013-5-5,79,61,45,34,25,17,54,29,15,28.91,28.82,8,4,14,0.00
2013-5-6,86,63,47,30,22,14,38,23,13,28.91,28.82,6,2,10,0.00
2013-5-7,85,72,51,30,24,15,30,17,13,28.91,28.82,7,3,12,0.00
2013-5-8,87,66,47,32,25,17,43,24,13,28.88,28.79,7,2,11,0.00
2013-5-9,72,56,43,42,33,22,86,46,16,28.82,28.73,13,4,27,0.00
2013-5-10,51,45,42,44,38,31,98,80,49,28.79,28.67,14,9,25,0.00
2013-5-11,54,44,38,51,35,10,98,72,26,28.82,28.58,10,4,25,0.00
2013-5-12,55,44,35,21,11,6,50,28,18,28.94,28.82,9,6,18,0.00
2013-5-13,64,46,32,31,17,7,72,36,15,29.00,28.76,7,3,13,0.00
2013-5-14,88,66,47,32,24,10,30,21,13,28.76,28.38,18,6,28,0.00
2013-5-15,82,72,61,35,26,16,26,18,14,28.67,28.38,10,5,20,0.00
2013-5-16,83,67,57,30,22,13,32,19,14,28.85,28.67,9,4,16,0.00
2013-5-17,57,53,49,47,29,11,85,43,17,28.97,28.82,8,5,14,0.00
2013-5-18,80,62,52,42,33,25,50,35,20,28.91,28.79,6,3,12,0.00
2013-5-19,84,72,54,48,40,34,59,33,18,28.79,28.55,12,6,22,0.00
2013-5-20,86,75,66,57,37,27,68,30,13,28.61,28.52,16,7,25,0.00
2013-5-21,68,65,64,62,56,46,89,72,45,28.52,28.47,13,8,28,0.00
2013-5-23,60,50,40,45,27,20,91,45,25,29.12,28.82,12,7,23,0.00
2013-5-24,63,49,36,28,20,10,67,36,16,29.23,29.09,6,3,12,0.00
2013-5-25,63,50,42,33,21,10,65,36,16,29.20,29.09,5,2,10,0.00
2013-5-26,66,54,40,30,22,16,56,32,15,29.12,28.97,7,3,13,0.00
2013-5-27,55,51,50,53,41,22,98,73,32,29.00,28.73,8,5,17,0.00
2013-5-28,73,64,50,67,56,48,97,77,43,28.64,28.55,8,4,15,0.00
2013-5-29,84,70,58,68,48,34,97,56,19,28.73,28.61,12,4,18,0.00
2013-5-30,86,75,65,59,48,37,76,43,18,28.73,28.58,18,10,28,0.00
2013-5-31,76,69,63,64,51,34,97,59,23,28.67,28.52,13,9,23,0.00
2013-6-1,78,70,62,68,50,34,96,55,21,28.52,28.44,13,6,24,0.00
2013-6-2,62,56,46,53,31,20,74,42,21,28.82,28.47,7,4,14,0.00
2013-6-3,72,57,42,47,28,16,90,40,15,28.88,28.82,7,3,12,0.00
2013-6-4,73,63,53,27,24,20,36,23,16,28.97,28.88,6,5,15,0.00
2013-6-5,62,58,52,36,26,18,54,32,19,28.85,28.79,9,4,13,0.00
2013-6-8,73,61,50,36,30,23,51,33,16,28.85,28.73,6,2,13,0.00
2013-6-9,73,63,51,48,40,31,71,45,22,28.85,28.64,6,3,12,0.00
2013-6-10,80,67,58,58,46,36,82,50,21,28.67,28.58,6,2,11,0.00
2013-6-11,83,72,58,64,43,31,97,43,16,28.73,28.64,6,2,13,0.00
2013-6-12,76,67,60,63,54,41,98,66,29,28.73,28.50,8,4,19,0.00
2013-6-13,78,67,57,59,39,25,98,44,15,28.88,28.52,9,5,17,0.00
2013-6-14,78,65,54,40,30,20,56,30,15,28.94,28.82,6,3,10,0.00
2013-6-15,75,64,55,68,49,31,97,63,33,28.88,28.61,7,3,19,0.00
2013-6-16,83,73,64,65,43,25,97,47,14,28.73,28.61,7,4,14,0.00
2013-6-17,83,67,59,43,36,27,52,33,14,28.79,28.67,8,2,15,0.00
2013-6-18,74,62,53,42,30,18,63,34,16,28.91,28.76,9,6,17,0.00
2013-6-19,75,63,48,34,25,19,50,25,16,28.97,28.88,7,3,13,0.00
2013-6-20,84,71,57,33,25,15,27,18,14,28.97,28.88,7,4,14,0.00
2013-6-21,76,70,63,68,46,29,97,47,24,28.94,28.73,14,4,28,0.00
2013-6-22,77,71,64,68,54,46,95,57,34,28.91,28.73,8,4,15,0.00
2013-6-23,87,76,65,65,50,38,96,48,19,28.82,28.70,11,7,17,0.00
2013-6-24,81,74,68,66,50,35,87,46,20,28.82,28.67,8,4,15,0.00
2013-6-25,84,72,66,70,58,38,97,69,20,28.73,28.58,10,3,15,0.00
2013-6-26,79,72,66,67,52,38,91,52,23,28.64,28.52,9,3,14,0.00
2013-6-27,85,73,66,70,53,36,95,56,18,28.58,28.50,8,2,14,0.00
2013-6-28,77,68,64,60,47,29,82,51,18,28.52,28.44,7,3,15,0.00
2013-6-29,77,67,63,61,44,24,89,51,15,28.61,28.41,13,8,23,0.00
2013-6-30,80,69,59,35,28,20,37,23,15,28.82,28.61,12,6,21,0.00
2013-7-1,82,70,57,32,26,21,35,21,14,28.91,28.82,10,6,20,0.00
2013-7-2,76,65,57,37,28,20,46,26,15,28.91,28.88,9,4,16,0.00
2013-7-3,68,64,60,56,43,33,82,49,33,28.88,28.82,6,3,11,0.00
2013-7-4,80,67,61,65,51,26,98,69,15,28.91,28.82,5,3,10,0.00
2013-9-17,63,58,55,100,36,29,49,41,28,30.18,28.97,5,2,11,0.00
2013-9-18,78,66,56,61,46,35,94,51,22,30.12,29.91,11,6,18,0.00
2013-9-19,82,70,67,70,60,42,97,74,29,29.94,29.74,10,6,19,0.00
2013-9-20,72,66,58,66,50,28,97,64,23,29.79,29.71,8,6,15,0.00
2013-9-21,59,55,50,49,30,16,81,43,19,29.94,29.79,8,3,14,0.00
2013-9-22,66,56,46,38,24,15,72,32,16,30.06,30.00,6,3,12,0.00
2013-9-23,66,53,42,51,29,19,89,47,18,30.12,30.06,6,2,12,0.00
2013-9-24,70,57,44,57,32,20,94,45,17,30.06,29.97,6,2,13,0.00
2013-9-25,72,57,47,60,36,22,97,53,16,30.00,29.97,7,2,13,0.00
2013-9-26,75,58,47,57,35,21,96,52,15,30.12,30.00,6,1,11,0.00
2013-9-27,78,61,46,58,33,21,96,43,15,30.18,30.06,7,2,15,0.00
2013-9-28,80,66,52,66,40,24,93,51,15,30.09,29.85,18,7,29,0.00
2013-9-29,78,59,50,54,36,18,100,54,14,30.06,29.94,5,2,10,0.00
2013-9-30,74,61,47,36,27,17,60,30,16,30.00,29.85,10,5,17,0.00
2013-10-1,83,68,56,49,35,27,66,33,14,29.97,29.82,14,6,22,0.00
2013-10-2,76,60,52,39,25,17,55,27,14,30.12,29.97,3,1,9,0.00
2013-10-3,76,64,53,66,49,35,100,62,23,30.03,29.85,11,3,17,0.00
2013-10-4,64,62,60,63,62,59,100,97,97,30.03,29.88,7,3,14,0.00
2013-10-5,70,65,61,68,64,61,100,96,94,29.94,29.76,8,3,18,0.00
2013-10-6,66,55,47,64,30,14,96,44,16,29.76,29.68,6,4,15,0.00
2013-10-7,70,54,47,47,26,14,97,38,14,30.09,29.71,8,4,15,0.00
2013-10-8,79,58,42,47,28,19,77,38,15,30.15,30.09,10,3,17,0.00
2013-10-9,74,60,49,35,26,16,52,30,15,30.24,30.12,9,4,13,0.00
2013-10-10,76,60,45,60,33,23,95,43,15,30.18,30.06,6,2,12,0.00
2013-10-11,74,59,47,57,36,23,95,50,16,30.09,29.97,8,3,13,0.00
2013-10-12,72,60,48,62,33,14,92,39,15,30.15,29.91,8,4,15,0.00
2013-10-13,71,52,42,25,17,11,44,27,14,30.39,30.12,6,2,15,0.00
2013-10-14,42,41,40,24,22,20,52,48,42,30.39,30.36,0,0,0,0.00
2013-10-15,58,58,58,58,57,57,98,98,98,29.78,29.75,8,4,8,0.00
2013-10-16,54,50,46,49,36,27,97,61,36,29.92,29.78,13,6,13,0.00
2013-10-17,60,48,44,48,23,10,96,41,17,29.92,29.81,10,4,11,0.00
2013-10-18,44,42,40,25,23,21,53,48,41,29.83,29.81,8,3,8,0.00
2013-10-19,43,42,40,31,26,22,65,55,43,29.81,29.78,12,6,12,0.00
2013-10-20,48,42,33,46,30,17,97,67,31,29.86,29.72,13,5,14,0.00
2013-10-21,48,40,33,46,8,-1,93,28,20,29.92,29.72,17,10,17,0.00
2013-10-22,49,38,29,10,6,0,41,27,19,29.95,29.89,10,4,13,0.00
2013-10-23,44,36,29,14,7,1,50,31,20,29.98,29.92,15,6,15,0.00
2013-10-24,44,38,33,10,6,1,35,27,20,30.25,29.98,15,7,15,0.00
2013-10-25,52,40,29,12,8,3,49,28,18,30.34,29.89,31,10,31,0.00
2013-10-26,53,46,41,12,8,4,29,21,18,30.07,29.75,31,10,31,0.00
2013-10-27,61,44,32,16,9,5,43,26,16,30.04,29.89,17,6,17,0.00
2013-10-28,48,41,35,20,10,3,43,28,19,30.40,30.01,23,10,23,0.00
2013-10-29,52,42,34,32,21,10,65,43,27,30.40,30.13,13,4,13,0.00
2013-10-30,54,48,37,54,43,27,98,85,62,30.16,29.78,14,4,14,0.00
2013-10-31,52,52,52,51,51,51,98,98,98,29.78,29.78,0,0,0,0.00
2013-11-1,52,52,52,51,51,51,98,98,98,29.78,29.78,0,0,0,0.00
2013-11-2,52,52,52,51,51,51,98,98,98,29.78,29.78,0,0,0,0.00
2013-11-3,52,52,52,51,51,51,98,98,98,29.78,29.78,0,0,0,0.00
2013-11-4,52,52,52,51,51,51,98,98,98,29.78,29.78,0,0,0,0.00
2013-11-5,52,52,52,51,51,51,98,98,98,29.78,29.78,0,0,0,0.00
2013-11-6,52,52,52,51,51,51,98,98,98,29.78,29.78,0,0,0,0.00
2013-11-7,52,37,31,51,14,3,98,41,21,30.22,29.78,15,7,15,0.00
2013-11-8,45,37,27,26,12,3,80,41,20,30.28,29.89,21,8,21,0.00
2013-11-9,53,46,40,20,11,3,35,24,18,30.04,29.75,26,14,26,0.00
2013-11-10,51,42,37,10,6,2,24,22,19,30.28,30.04,18,9,18,0.00
2013-11-11,42,34,24,27,6,-7,71,34,23,30.48,30.04,20,8,20,0.00
2013-11-12,33,25,19,0,-4,-8,42,28,23,30.63,30.48,19,5,19,0.00
2013-11-13,44,33,19,5,0,-6,35,24,20,30.51,30.04,31,12,31,0.00
2013-11-14,47,40,32,7,3,-1,23,21,19,30.04,29.86,22,8,25,0.00
2013-11-15,42,41,39,5,4,3,24,21,21,29.92,29.89,15,6,15,0.00
2013-11-16,59,48,0,54,42,5,98,80,41,29.92,29.54,30,11,30,0.00
2013-11-17,59,52,0,53,38,12,95,60,30,29.66,29.12,28,10,28,0.00
2013-11-18,40,33,27,13,4,-2,37,28,22,30.22,29.66,30,11,30,0.00
2013-11-19,47,34,25,19,8,1,57,35,19,30.37,30.22,10,4,10,0.00
2013-11-20,45,37,32,28,12,4,73,38,20,30.28,30.10,20,7,20,0.00
2013-11-21,39,37,36,36,35,28,93,90,75,30.16,30.13,6,1,6,0.00
2013-11-22,40,31,25,13,1,-7,45,28,21,30.42,30.37,15,5,15,0.00
2013-11-23,25,20,11,-5,-12,-19,27,23,22,30.63,30.34,21,6,21,0.00
2013-11-24,28,18,8,-5,-14,-21,27,23,21,30.63,30.25,28,8,28,0.00
2013-11-25,28,26,22,12,4,-11,63,40,22,30.25,29.98,26,11,26,0.00
2013-11-27,33,23,11,3,-7,-17,43,27,21,30.22,0.00,13,3,13,0.00
2013-11-28,28,22,16,3,-3,-7,43,33,23,30.45,30.16,11,3,11,0.00
2013-11-29,37,24,10,7,-2,-8,53,34,22,30.57,30.34,14,4,14,0.00
2013-11-30,46,34,28,12,6,0,37,31,20,30.34,30.01,15,6,15,0.00
2013-12-1,52,36,30,14,9,2,46,33,18,30.13,29.98,12,3,12,0.00
2013-12-2,41,33,25,27,14,4,74,46,23,29.98,29.81,13,3,13,0.00
2013-12-3,40,38,34,39,37,27,98,97,76,29.81,29.69,14,5,14,0.00
2013-12-4,51,42,37,50,40,18,98,94,43,29.77,29.45,26,6,29,0.00
2013-12-5,37,24,15,18,-3,-13,48,30,24,30.22,29.60,28,10,28,0.00
2013-12-6,21,12,7,-10,-17,-22,31,26,22,30.45,30.19,17,7,17,0.00
2013-12-7,18,9,1,-13,-21,-27,24,24,23,30.60,30.45,13,4,13,0.00
2013-12-8,26,17,6,18,-6,-23,73,37,24,30.54,29.95,15,5,15,0.00
2013-12-9,19,9,-3,-4,-19,-31,45,27,24,30.10,29.92,21,8,22,0.00
2013-12-10,18,7,-7,-8,-22,-35,33,24,23,30.19,29.86,26,8,26,0.00
2013-12-11,14,5,-4,-16,-24,-32,24,24,24,30.42,30.16,18,5,18,0.00
2013-12-12,17,9,-5,-8,-19,-33,34,26,23,30.40,30.10,16,7,16,0.00
2013-12-13,25,20,14,4,-4,-9,42,34,24,30.16,30.07,15,6,15,0.00
2013-12-14,30,24,19,9,5,2,54,45,32,30.13,29.86,19,6,19,0.00
2013-12-15,20,10,0,5,-15,-28,53,31,24,30.04,29.81,25,8,25,0.00
2013-12-16,26,9,-3,-5,-17,-31,42,29,21,30.07,29.89,14,4,14,0.00
2013-12-17,33,23,13,10,1,-6,70,40,23,29.95,29.81,22,8,22,0.00
2013-12-18,34,23,11,5,-6,-17,34,26,23,30.01,29.66,27,8,27,0.00
2013-12-19,32,29,25,19,10,-3,61,45,25,29.89,29.69,19,6,19,0.00
2013-12-20,31,28,25,21,14,12,69,55,48,29.77,29.69,16,6,16,0.00
2013-12-21,32,29,25,26,18,13,80,63,51,29.77,29.60,20,5,20,0.00
2013-12-22,31,26,20,22,10,1,75,52,31,29.95,29.57,20,6,20,0.00
2013-12-23,23,15,4,6,-5,-22,54,40,27,30.19,29.95,16,5,16,0.00
2013-12-24,21,8,-5,-12,-20,-29,29,26,22,30.34,30.13,15,4,15,0.00
2013-12-25,21,18,11,7,-2,-19,54,41,24,30.13,29.86,17,8,17,0.00
2013-12-26,24,19,11,7,-3,-11,53,38,25,30.04,29.86,14,4,14,0.00
2013-12-27,36,27,11,8,4,-6,53,39,24,30.04,29.77,23,6,23,0.00
2013-12-28,47,36,25,12,8,4,51,32,19,29.83,29.57,23,8,23,0.00
2013-12-29,38,20,0,14,-6,-29,50,30,24,29.95,29.51,23,7,23,0.00
2013-12-30,3,0,-8,-26,-28,-36,24,24,24,30.04,29.89,11,5,11,0.00
2013-12-31,7,4,0,-22,-25,-29,24,24,24,29.98,28.73,13,5,13,0.00
2014-1-1,16,9,2,-13,-20,-26,27,25,24,30.36,28.82,15,7,15,0.00
2014-1-2,23,9,-1,-10,-19,-30,27,25,22,30.33,30.18,14,5,14,0.00